Otto, Wyoming
Current Conditions -  °F | °C
As of 5:53 PM on Friday 28 Nov 2014 (Local Time) from KGEY Reporting Station
Clear Clear  
Wind Chill: 37°   Ceiling: Unl
Heat Index: 41°   Visibility: 10mi
Dew Point: 28°   Wind: 6mph
Humidity: 60%   Direction: NA
Pressure: 29.59"   Gusts: NA
Location:  44.4°N, 108.28°W
Report Text: KGEY 290053Z AUTO VRB05KT 10SM CLR 05/M02 A2959 RMK AO2 SLP037 T00501022
Loading
Personal Weather Stations






























Interactive Weather Map New forecast layout! Learn more

10-Day Weather Forecast

Advertisements
Track Severe Weather on mobile